Time;durP1;ratioP1;P1;durP2;ratioP2;P2;SDS_P1;SDS_P2;PMS_P1;PMS_P2;Temp;Humidity;BMP_temperature;BMP_pressure;BME280_temperature;BME280_humidity;BME280_pressure;Samples;Min_cycle;Max_cycle;Signal;HPM_P1;HPM_P2
2023/08/06 00:00:47;;;;;;;0.10;0.10;;;20.80;99.90;;;;;;5042842;28;20119;-83
2023/08/06 00:03:13;;;;;;;0.10;0.10;;;20.80;99.90;;;;;;5061565;28;20620;-79
2023/08/06 00:05:42;;;;;;;0.10;0.10;;;21.00;99.90;;;;;;5044181;28;20316;-78
2023/08/06 00:08:08;;;;;;;0.10;0.10;;;19.30;99.90;;;;;;5062004;28;20013;-76
2023/08/06 00:10:34;;;;;;;0.10;0.10;;;21.10;99.90;;;;;;5042249;28;20025;-77
2023/08/06 00:13:00;;;;;;;0.10;0.10;;;21.30;99.90;;;;;;5060294;28;20059;-79
2023/08/06 00:15:25;;;;;;;0.30;0.30;;;21.40;99.90;;;;;;5042107;28;20016;-80
2023/08/06 00:17:51;;;;;;;0.10;0.10;;;23.80;99.90;;;;;;5060544;28;20525;-80
2023/08/06 00:20:17;;;;;;;0.10;0.10;;;21.30;99.90;;;;;;5059944;28;20340;-78
2023/08/06 00:22:43;;;;;;;0.20;0.20;;;21.10;99.90;;;;;;5042032;28;20055;-77
2023/08/06 00:25:09;;;;;;;0.28;0.28;;;21.20;99.90;;;;;;5041716;28;20388;-76
2023/08/06 00:27:38;;;;;;;0.20;0.20;;;20.90;99.90;;;;;;5042235;28;20395;-86
2023/08/06 00:30:04;;;;;;;0.10;0.10;;;20.50;99.90;;;;;;5059315;28;20020;-78
2023/08/06 00:32:30;;;;;;;0.10;0.10;;;20.70;99.90;;;;;;5059789;28;20435;-83
2023/08/06 00:34:56;;;;;;;0.10;0.10;;;20.10;99.90;;;;;;5059844;28;20162;-78
2023/08/06 00:37:22;;;;;;;0.10;0.10;;;19.70;99.90;;;;;;5059718;28;20032;-79
2023/08/06 00:39:48;;;;;;;0.10;0.10;;;19.40;99.90;;;;;;5060141;28;20024;-78
2023/08/06 00:42:13;;;;;;;0.10;0.10;;;19.50;99.90;;;;;;5042105;28;20025;-76
2023/08/06 00:44:39;;;;;;;0.10;0.10;;;19.70;99.90;;;;;;5042225;28;20029;-77
2023/08/06 00:47:07;;;;;;;0.98;0.63;;;20.20;99.90;;;;;;5043282;28;20040;-76
2023/08/06 00:49:35;;;;;;;0.10;0.10;;;20.30;99.90;;;;;;5041997;28;20571;-76
2023/08/06 00:52:01;;;;;;;0.10;0.10;;;20.60;99.90;;;;;;5058723;28;20053;-78
2023/08/06 00:54:27;;;;;;;0.10;0.10;;;20.80;99.90;;;;;;5059003;28;20036;-76
2023/08/06 00:56:53;;;;;;;0.10;0.10;;;20.60;99.90;;;;;;5059081;28;20494;-80
2023/08/06 00:59:19;;;;;;;0.10;0.10;;;20.50;99.90;;;;;;5040979;28;20078;-75
2023/08/06 01:01:46;;;;;;;0.10;0.10;;;20.50;99.90;;;;;;5059071;28;20490;-81
2023/08/06 01:04:12;;;;;;;0.70;0.70;;;20.70;99.90;;;;;;5059152;28;20094;-80
2023/08/06 01:06:46;;;;;;;0.10;0.10;;;20.50;99.90;;;;;;5058269;28;20096;-76
2023/08/06 01:09:32;;;;;;;0.10;0.10;;;20.60;99.90;;;;;;5059071;28;20048;-76
2023/08/06 01:12:36;;;;;;;0.10;0.10;;;20.70;99.90;;;;;;5030145;28;20127;-78
2023/08/06 01:15:06;;;;;;;0.05;0.05;;;20.70;99.90;;;;;;5058921;28;20510;-80
2023/08/06 01:17:33;;;;;;;0.10;0.10;;;20.80;99.90;;;;;;5057388;28;20081;-81
2023/08/06 01:19:59;;;;;;;0.10;0.10;;;20.30;99.90;;;;;;5058656;28;20384;-80
2023/08/06 01:22:25;;;;;;;0.13;0.13;;;20.90;99.90;;;;;;5058798;28;20092;-84
2023/08/06 01:24:51;;;;;;;0.10;0.10;;;21.00;99.90;;;;;;5058532;28;20564;-77
2023/08/06 01:28:02;;;;;;;0.30;0.30;;;21.20;99.90;;;;;;5058452;28;20352;-85
2023/08/06 01:30:35;;;;;;;0.10;0.10;;;21.30;99.90;;;;;;5054960;28;20081;-77
2023/08/06 01:33:04;;;;;;;1.25;0.60;;;21.20;99.90;;;;;;5058595;28;20028;-81
2023/08/06 01:35:32;;;;;;;0.10;0.10;;;21.20;99.90;;;;;;5039970;28;20031;-76
2023/08/06 01:38:00;;;;;;;0.10;0.10;;;21.30;99.90;;;;;;5058237;28;20023;-77
2023/08/06 01:40:28;;;;;;;0.10;0.10;;;21.30;99.90;;;;;;5057934;28;20119;-76
2023/08/06 01:42:54;;;;;;;0.10;0.10;;;21.50;99.90;;;;;;5058302;28;20028;-78
2023/08/06 01:45:19;;;;;;;0.20;0.20;;;21.40;99.90;;;;;;5058118;28;20040;-77
2023/08/06 01:47:45;;;;;;;0.20;0.20;;;21.10;99.90;;;;;;5058147;28;20445;-86
2023/08/06 01:50:11;;;;;;;0.17;0.17;;;20.60;99.90;;;;;;5058120;28;20544;-82
2023/08/06 01:52:37;;;;;;;0.10;0.10;;;20.80;99.90;;;;;;5058179;28;20564;-84
2023/08/06 01:55:03;;;;;;;0.35;0.35;;;20.90;99.90;;;;;;5058384;28;20020;-92
2023/08/06 01:57:33;;;;;;;0.10;0.10;;;21.00;99.90;;;;;;5058616;28;20093;-77
2023/08/06 01:59:59;;;;;;;0.10;0.10;;;21.10;99.90;;;;;;5058116;28;20105;-77
2023/08/06 02:02:31;;;;;;;1.38;1.27;;;21.20;99.90;;;;;;5039802;28;20327;-76
2023/08/06 02:05:00;;;;;;;0.57;0.57;;;21.50;99.90;;;;;;5057814;28;20040;-79
2023/08/06 02:07:25;;;;;;;0.10;0.10;;;21.00;99.90;;;;;;5058006;28;20044;-79
2023/08/06 02:09:51;;;;;;;0.35;0.35;;;21.00;99.90;;;;;;5039433;28;20569;-85
2023/08/06 02:12:19;;;;;;;0.10;0.10;;;20.70;99.90;;;;;;5038760;28;20029;-83
2023/08/06 02:15:07;;;;;;;0.63;0.60;;;20.80;99.90;;;;;;5058400;28;20226;-78
2023/08/06 02:17:36;;;;;;;0.10;0.10;;;20.90;99.90;;;;;;5058351;28;20024;-81
2023/08/06 02:20:02;;;;;;;0.10;0.10;;;20.50;99.90;;;;;;5059499;28;20320;-78
2023/08/06 02:22:28;;;;;;;0.10;0.10;;;21.30;99.90;;;;;;5059526;28;20031;-82
2023/08/06 02:24:54;;;;;;;0.10;0.10;;;21.10;99.90;;;;;;5059128;28;20033;-84
2023/08/06 02:27:20;;;;;;;0.10;0.10;;;;;;;;;;5060873;28;20013;-83
2023/08/06 02:29:46;;;;;;;0.10;0.10;;;20.70;99.90;;;;;;5058276;28;20032;-82
2023/08/06 02:32:11;;;;;;;0.75;0.68;;;20.70;99.90;;;;;;5057258;28;20020;-80
2023/08/06 02:34:37;;;;;;;0.10;0.10;;;20.70;99.90;;;;;;5057416;28;20519;-74
2023/08/06 02:37:03;;;;;;;1.45;1.45;;;21.20;99.90;;;;;;5056943;28;20471;-72
2023/08/06 02:39:29;;;;;;;0.10;0.10;;;20.70;99.90;;;;;;5057850;28;20021;-73
2023/08/06 02:41:55;;;;;;;0.10;0.10;;;20.60;99.90;;;;;;5057657;28;20518;-75
2023/08/06 02:44:20;;;;;;;0.10;0.10;;;20.70;99.90;;;;;;5057068;28;20271;-74
2023/08/06 02:46:46;;;;;;;1.08;1.02;;;20.60;99.90;;;;;;5039134;28;20013;-79
2023/08/06 02:49:12;;;;;;;1.17;1.08;;;20.80;99.90;;;;;;5057444;28;20041;-76
2023/08/06 02:51:38;;;;;;;0.10;0.10;;;20.80;99.90;;;;;;5057027;28;20102;-76
2023/08/06 02:54:03;;;;;;;0.10;0.10;;;20.90;99.90;;;;;;5057163;28;20399;-76
2023/08/06 02:56:29;;;;;;;0.30;0.30;;;20.90;99.90;;;;;;5057257;28;20428;-82
2023/08/06 02:58:55;;;;;;;0.63;0.63;;;20.90;99.90;;;;;;5055435;28;20565;-79
2023/08/06 03:01:23;;;;;;;0.32;0.32;;;20.90;99.90;;;;;;5057490;28;20035;-78
2023/08/06 03:03:48;;;;;;;0.10;0.10;;;20.90;99.90;;;;;;5039158;28;20037;-75
2023/08/06 03:06:14;;;;;;;0.10;0.10;;;20.90;99.90;;;;;;5057665;28;20059;-79
2023/08/06 03:08:40;;;;;;;0.10;0.10;;;20.80;99.90;;;;;;5057661;28;20441;-75
2023/08/06 03:11:06;;;;;;;0.10;0.10;;;20.80;99.90;;;;;;5057617;28;20020;-76
2023/08/06 03:13:32;;;;;;;0.10;0.10;;;20.90;99.90;;;;;;5057313;28;20585;-77
2023/08/06 03:15:59;;;;;;;0.10;0.10;;;20.70;99.90;;;;;;5057785;28;20058;-81
2023/08/06 03:18:26;;;;;;;0.30;0.30;;;20.70;99.90;;;;;;5040337;28;20143;-81
2023/08/06 03:20:52;;;;;;;0.20;0.20;;;20.70;99.90;;;;;;5058576;28;20009;-81
2023/08/06 03:23:18;;;;;;;0.10;0.10;;;20.70;99.90;;;;;;5058731;28;20499;-78
2023/08/06 03:25:44;;;;;;;0.10;0.10;;;20.70;99.90;;;;;;5059613;28;20318;-78
2023/08/06 03:28:11;;;;;;;0.10;0.10;;;20.80;99.90;;;;;;5058720;28;20031;-75
2023/08/06 03:30:37;;;;;;;0.10;0.10;;;18.30;99.90;;;;;;5061175;28;20318;-77
2023/08/06 03:33:02;;;;;;;0.10;0.10;;;20.80;99.90;;;;;;5061125;28;20047;-76
2023/08/06 03:35:28;;;;;;;0.10;0.10;;;20.70;99.90;;;;;;5060845;28;20032;-84
2023/08/06 03:37:54;;;;;;;1.33;1.27;;;20.50;99.90;;;;;;5060788;28;20032;-75
2023/08/06 03:40:20;;;;;;;0.10;0.10;;;20.50;99.90;;;;;;5042003;28;20510;-87
2023/08/06 03:42:45;;;;;;;0.10;0.10;;;20.60;99.90;;;;;;5060921;28;20032;-79
2023/08/06 03:45:11;;;;;;;0.32;0.32;;;20.70;99.90;;;;;;5060567;28;20443;-76
2023/08/06 03:47:37;;;;;;;0.10;0.10;;;20.40;99.90;;;;;;5060200;28;20418;-76
2023/08/06 03:50:03;;;;;;;0.10;0.10;;;20.40;99.90;;;;;;5060210;28;20025;-75
2023/08/06 03:52:29;;;;;;;0.10;0.10;;;20.40;99.90;;;;;;5059818;28;20391;-74
2023/08/06 03:54:54;;;;;;;1.48;1.38;;;20.30;99.90;;;;;;5041967;28;20503;-73
2023/08/06 03:57:20;;;;;;;0.10;0.10;;;20.40;99.90;;;;;;5059746;28;20212;-74
2023/08/06 03:59:46;;;;;;;0.08;0.08;;;20.40;99.90;;;;;;5059268;28;20368;-75
2023/08/06 04:02:12;;;;;;;0.05;0.05;;;20.40;99.90;;;;;;5060503;28;20028;-82
2023/08/06 04:04:37;;;;;;;0.10;0.10;;;20.50;99.90;;;;;;5041753;28;20122;-77
2023/08/06 04:07:04;;;;;;;0.30;0.30;;;20.60;99.90;;;;;;5060130;28;20104;-78
2023/08/06 04:09:29;;;;;;;0.10;0.10;;;20.60;99.90;;;;;;5060323;28;20226;-79
2023/08/06 04:11:55;;;;;;;0.10;0.10;;;20.60;99.90;;;;;;5060423;28;20024;-79
2023/08/06 04:14:21;;;;;;;0.20;0.20;;;20.60;99.90;;;;;;5059848;28;20054;-79
2023/08/06 04:16:47;;;;;;;0.10;0.10;;;20.60;99.90;;;;;;5060227;28;20024;-81
2023/08/06 04:19:13;;;;;;;1.55;1.15;;;20.60;99.90;;;;;;5060246;28;20035;-75
2023/08/06 04:21:38;;;;;;;0.10;0.10;;;20.60;99.90;;;;;;5059816;28;20031;-81
2023/08/06 04:24:04;;;;;;;0.73;0.73;;;20.60;99.90;;;;;;5060241;28;20445;-75
2023/08/06 04:26:30;;;;;;;0.10;0.10;;;20.60;99.90;;;;;;5059529;28;20033;-76
2023/08/06 04:28:56;;;;;;;0.20;0.20;;;20.60;99.90;;;;;;5060050;28;20032;-81
2023/08/06 04:31:23;;;;;;;0.10;0.10;;;20.60;99.90;;;;;;5059910;28;20032;-75
2023/08/06 04:33:49;;;;;;;0.85;0.85;;;20.60;99.90;;;;;;5060437;28;20093;-78
2023/08/06 04:36:14;;;;;;;0.35;0.35;;;20.60;99.90;;;;;;5059921;28;20506;-84
2023/08/06 04:38:44;;;;;;;0.10;0.10;;;20.60;99.90;;;;;;5059973;28;20518;-78
2023/08/06 04:41:11;;;;;;;0.10;0.10;;;20.60;99.90;;;;;;5058450;28;20013;-81
2023/08/06 04:43:37;;;;;;;2.55;1.45;;;20.60;99.90;;;;;;5060035;28;20066;-76
2023/08/06 04:46:02;;;;;;;0.10;0.10;;;20.60;99.90;;;;;;5041901;28;20111;-75
2023/08/06 04:48:28;;;;;;;0.10;0.10;;;20.60;99.90;;;;;;5060471;28;20028;-83
2023/08/06 04:50:54;;;;;;;0.10;0.10;;;20.70;99.90;;;;;;5059799;28;20068;-82
2023/08/06 04:53:20;;;;;;;2.60;1.10;;;20.60;99.90;;;;;;5059554;28;20419;-75
2023/08/06 04:55:46;;;;;;;1.63;1.52;;;20.50;99.90;;;;;;5059670;28;20593;-75
2023/08/06 04:58:13;;;;;;;5.15;1.88;;;20.40;99.90;;;;;;5059507;28;20031;-75
2023/08/06 05:00:39;;;;;;;0.38;0.38;;;20.50;99.90;;;;;;5059141;28;20604;-80
2023/08/06 05:03:05;;;;;;;0.10;0.10;;;20.60;99.90;;;;;;5059181;28;20028;-82
2023/08/06 05:05:31;;;;;;;0.10;0.10;;;20.70;99.90;;;;;;5059526;28;20048;-80
2023/08/06 05:07:57;;;;;;;0.10;0.10;;;20.70;99.90;;;;;;5059017;28;20683;-80
2023/08/06 05:10:25;;;;;;;0.10;0.10;;;20.80;99.90;;;;;;5041069;28;20074;-82
2023/08/06 05:12:52;;;;;;;0.10;0.10;;;20.90;99.90;;;;;;5058621;28;20444;-76
2023/08/06 05:15:17;;;;;;;0.52;0.52;;;20.90;99.90;;;;;;5058479;28;20471;-77
2023/08/06 05:17:43;;;;;;;0.10;0.10;;;20.80;99.90;;;;;;5058815;28;20024;-75
2023/08/06 05:20:10;;;;;;;0.10;0.10;;;20.90;99.90;;;;;;5059142;28;20290;-76
2023/08/06 05:22:36;;;;;;;0.10;0.10;;;21.00;99.90;;;;;;5059378;28;20020;-80
2023/08/06 05:25:02;;;;;;;0.10;0.10;;;20.90;99.90;;;;;;5042568;28;20028;-78
2023/08/06 05:27:30;;;;;;;0.15;0.15;;;21.10;99.90;;;;;;5060097;28;20020;-78
2023/08/06 05:29:56;;;;;;;0.10;0.10;;;21.20;99.90;;;;;;5041260;28;20035;-84
2023/08/06 05:32:22;;;;;;;0.10;0.10;;;21.20;99.90;;;;;;5058843;28;20090;-78
2023/08/06 05:34:48;;;;;;;0.10;0.10;;;21.20;99.90;;;;;;5058541;28;20510;-75
2023/08/06 05:37:14;;;;;;;0.10;0.10;;;20.60;99.90;;;;;;5058738;28;20052;-84
2023/08/06 05:39:40;;;;;;;0.63;0.63;;;20.70;99.90;;;;;;5058002;28;20676;-83
2023/08/06 05:42:06;;;;;;;0.20;0.20;;;20.90;99.90;;;;;;5058397;28;20020;-79
2023/08/06 05:44:32;;;;;;;0.10;0.10;;;21.00;99.90;;;;;;5058490;28;20113;-81
2023/08/06 05:46:58;;;;;;;0.15;0.15;;;21.20;99.90;;;;;;5058872;28;20559;-74
2023/08/06 05:49:23;;;;;;;0.25;0.25;;;21.10;99.90;;;;;;5059206;28;20222;-81
2023/08/06 05:51:49;;;;;;;0.10;0.10;;;21.30;99.90;;;;;;5058231;28;20045;-75
2023/08/06 05:54:15;;;;;;;0.20;0.20;;;21.30;99.90;;;;;;5058478;28;20134;-75
2023/08/06 05:56:41;;;;;;;0.10;0.10;;;21.40;99.90;;;;;;5040197;28;20036;-74
2023/08/06 05:59:06;;;;;;;0.10;0.10;;;21.30;99.90;;;;;;5058040;28;20063;-75
2023/08/06 06:01:32;;;;;;;0.10;0.10;;;21.40;99.90;;;;;;5057678;28;20028;-75
2023/08/06 06:03:58;;;;;;;0.10;0.10;;;21.50;99.90;;;;;;5057883;28;20033;-77
2023/08/06 06:06:24;;;;;;;0.10;0.10;;;21.60;99.90;;;;;;5039705;28;20426;-75
2023/08/06 06:08:50;;;;;;;1.30;1.00;;;21.60;99.90;;;;;;5057362;28;20104;-75
2023/08/06 06:11:15;;;;;;;0.10;0.10;;;21.70;99.90;;;;;;5057575;28;20009;-77
2023/08/06 06:13:41;;;;;;;0.10;0.10;;;21.80;99.90;;;;;;5057305;28;20530;-75
2023/08/06 06:16:07;;;;;;;0.10;0.10;;;21.90;99.90;;;;;;5057220;28;20111;-81
2023/08/06 06:18:33;;;;;;;0.20;0.20;;;22.00;99.90;;;;;;5038257;28;20035;-75
2023/08/06 06:20:59;;;;;;;0.10;0.10;;;22.10;99.90;;;;;;5057084;28;20325;-76
2023/08/06 06:23:24;;;;;;;0.20;0.20;;;22.20;99.90;;;;;;5057905;28;20020;-77
2023/08/06 06:25:51;;;;;;;0.10;0.10;;;22.30;99.90;;;;;;5057809;28;20232;-82
2023/08/06 06:28:18;;;;;;;0.10;0.10;;;22.40;99.90;;;;;;5057431;28;20051;-79
2023/08/06 06:30:48;;;;;;;0.20;0.20;;;22.50;99.90;;;;;;5057189;28;20518;-74
2023/08/06 06:33:13;;;;;;;0.32;0.32;;;22.50;99.90;;;;;;5038784;28;20583;-82
2023/08/06 06:35:39;;;;;;;0.10;0.10;;;22.70;99.90;;;;;;5058141;28;20028;-75
2023/08/06 06:38:05;;;;;;;0.47;0.47;;;22.70;99.90;;;;;;5054650;28;20376;-77
2023/08/06 06:40:31;;;;;;;0.10;0.10;;;22.70;99.90;;;;;;5057029;28;20024;-76
2023/08/06 06:42:56;;;;;;;0.10;0.10;;;22.50;99.90;;;;;;5057437;28;20258;-79
2023/08/06 06:45:22;;;;;;;0.15;0.15;;;22.60;99.90;;;;;;5039348;28;20043;-80
2023/08/06 06:47:48;;;;;;;0.10;0.10;;;22.40;99.90;;;;;;5057303;28;20735;-74
2023/08/06 06:50:14;;;;;;;0.10;0.10;;;22.30;99.90;;;;;;5056893;28;20090;-75
2023/08/06 06:52:39;;;;;;;0.70;0.52;;;22.20;99.90;;;;;;5057615;28;20559;-73
2023/08/06 06:55:05;;;;;;;0.10;0.10;;;22.10;99.90;;;;;;5058080;28;20009;-79
2023/08/06 06:57:31;;;;;;;0.10;0.10;;;22.20;99.90;;;;;;5058333;28;20023;-75
2023/08/06 06:59:57;;;;;;;0.10;0.10;;;22.20;99.90;;;;;;5058212;28;20521;-74
2023/08/06 07:02:23;;;;;;;0.10;0.10;;;22.20;99.90;;;;;;5057779;28;20028;-75
2023/08/06 07:04:50;;;;;;;0.10;0.10;;;22.10;99.90;;;;;;5061064;28;20039;-76
2023/08/06 07:07:15;;;;;;;0.10;0.10;;;22.20;99.90;;;;;;5044004;28;20503;-76
2023/08/06 07:09:41;;;;;;;0.60;0.60;;;22.40;99.90;;;;;;5061951;28;20023;-73
2023/08/06 07:12:07;;;;;;;0.57;0.57;;;22.50;99.90;;;;;;5061641;28;20012;-76
2023/08/06 07:14:33;;;;;;;0.10;0.10;;;22.40;99.90;;;;;;5044000;28;20028;-75
2023/08/06 07:16:59;;;;;;;0.10;0.10;;;22.40;99.90;;;;;;5044391;28;20016;-76
2023/08/06 07:19:25;;;;;;;0.10;0.10;;;22.50;99.90;;;;;;5062072;28;20040;-75
2023/08/06 07:21:51;;;;;;;0.15;0.15;;;22.60;99.90;;;;;;5061499;28;20654;-75
2023/08/06 07:24:17;;;;;;;0.45;0.45;;;22.60;99.90;;;;;;5044173;28;20746;-74
2023/08/06 07:26:42;;;;;;;0.20;0.20;;;22.70;99.90;;;;;;5061395;28;20095;-75
2023/08/06 07:29:08;;;;;;;0.38;0.38;;;22.80;99.90;;;;;;5061744;28;20036;-75
2023/08/06 07:31:34;;;;;;;0.10;0.10;;;23.00;99.90;;;;;;5061778;28;20232;-76
2023/08/06 07:34:00;;;;;;;0.20;0.20;;;23.20;99.90;;;;;;5043644;28;20044;-76
2023/08/06 07:36:28;;;;;;;0.10;0.10;;;22.90;99.90;;;;;;5044104;28;20017;-75
2023/08/06 07:38:56;;;;;;;0.10;0.10;;;23.20;99.90;;;;;;5061666;28;20020;-76
2023/08/06 07:41:25;;;;;;;0.10;0.10;;;23.30;99.90;;;;;;5043970;28;20036;-76
2023/08/06 07:43:51;;;;;;;0.10;0.10;;;23.10;99.90;;;;;;5061645;28;20723;-75
2023/08/06 07:46:17;;;;;;;0.10;0.10;;;23.20;99.90;;;;;;5060760;28;20112;-77
2023/08/06 07:48:43;;;;;;;0.10;0.10;;;23.10;99.90;;;;;;5061514;28;20099;-75
2023/08/06 07:51:09;;;;;;;0.10;0.10;;;23.00;99.90;;;;;;5061582;28;20125;-76
2023/08/06 07:53:35;;;;;;;0.32;0.32;;;23.00;99.90;;;;;;5060443;28;20032;-77
2023/08/06 07:56:02;;;;;;;0.10;0.10;;;20.10;99.90;;;;;;5060909;28;20020;-82
2023/08/06 07:58:29;;;;;;;0.08;0.08;;;23.20;99.90;;;;;;5060819;28;20634;-84
2023/08/06 08:00:55;;;;;;;0.10;0.10;;;21.70;99.90;;;;;;5060540;28;20103;-78
2023/08/06 08:03:21;;;;;;;0.10;0.10;;;22.80;99.90;;;;;;5061140;28;20735;-76
2023/08/06 08:05:47;;;;;;;0.10;0.10;;;22.80;99.90;;;;;;5060576;28;20032;-76
2023/08/06 08:08:13;;;;;;;0.10;0.10;;;22.70;99.90;;;;;;5043240;28;20021;-76
2023/08/06 08:10:39;;;;;;;0.10;0.10;;;22.70;99.90;;;;;;5060735;28;20048;-77
2023/08/06 08:13:05;;;;;;;0.10;0.10;;;23.00;99.90;;;;;;5060856;28;20052;-88
2023/08/06 08:15:32;;;;;;;0.10;0.10;;;22.60;99.90;;;;;;5060679;28;20734;-75
2023/08/06 08:17:58;;;;;;;0.15;0.15;;;22.60;99.90;;;;;;5061256;28;20013;-82
2023/08/06 08:20:24;;;;;;;0.10;0.10;;;22.70;99.90;;;;;;5061082;28;20024;-86
2023/08/06 08:22:50;;;;;;;0.10;0.10;;;23.10;99.90;;;;;;5061620;28;20017;-79
2023/08/06 08:25:16;;;;;;;0.10;0.10;;;23.40;99.90;;;;;;5060689;28;20029;-75
2023/08/06 08:27:42;;;;;;;0.10;0.10;;;23.60;99.90;;;;;;5060845;28;20056;-75
2023/08/06 08:30:08;;;;;;;0.00;0.00;;;24.10;99.90;;;;;;5061416;28;20048;-79
2023/08/06 08:32:34;;;;;;;0.17;0.17;;;24.20;99.90;;;;;;5043495;28;20075;-80
2023/08/06 08:35:00;;;;;;;0.10;0.10;;;24.60;99.90;;;;;;5060539;28;20624;-85
2023/08/06 08:37:25;;;;;;;0.00;0.00;;;24.50;99.90;;;;;;5061373;28;20114;-83
2023/08/06 08:39:52;;;;;;;0.10;0.10;;;24.80;99.90;;;;;;5061681;28;20110;-77
2023/08/06 08:42:18;;;;;;;0.00;0.00;;;25.10;99.90;;;;;;5061074;28;20042;-82
2023/08/06 08:44:45;;;;;;;0.05;0.05;;;25.20;99.90;;;;;;5042728;28;20033;-75
2023/08/06 08:47:12;;;;;;;1.00;0.47;;;25.00;99.90;;;;;;5060184;28;20016;-74
2023/08/06 08:49:38;;;;;;;1.17;1.10;;;25.10;99.90;;;;;;5060768;28;20095;-81
2023/08/06 08:52:10;;;;;;;0.10;0.10;;;25.00;99.90;;;;;;5041042;28;20044;-76
2023/08/06 08:54:38;;;;;;;0.10;0.10;;;24.70;99.90;;;;;;5059564;28;20020;-74
2023/08/06 08:57:04;;;;;;;0.20;0.20;;;24.80;99.90;;;;;;5041727;28;20016;-75
2023/08/06 08:59:30;;;;;;;0.10;0.10;;;22.50;99.90;;;;;;5059398;28;20020;-75
2023/08/06 09:01:56;;;;;;;0.10;0.10;;;24.60;99.90;;;;;;5059495;28;20241;-79
2023/08/06 09:04:23;;;;;;;0.00;0.00;;;24.50;99.90;;;;;;5059234;28;20044;-76
2023/08/06 09:06:56;;;;;;;0.10;0.10;;;24.20;99.90;;;;;;5041806;28;20119;-79
2023/08/06 09:09:32;;;;;;;0.10;0.10;;;24.20;99.90;;;;;;5059329;28;20034;-81
2023/08/06 09:12:04;;;;;;;0.10;0.10;;;24.10;99.90;;;;;;5059457;28;20020;-85
2023/08/06 09:14:30;;;;;;;0.10;0.10;;;24.20;99.90;;;;;;5060208;28;20024;-73
2023/08/06 09:16:57;;;;;;;0.10;0.10;;;24.20;99.90;;;;;;5059855;28;20032;-74
2023/08/06 09:19:23;;;;;;;0.10;0.10;;;24.20;99.40;;;;;;5059527;28;20130;-74
2023/08/06 09:21:51;;;;;;;0.00;0.00;;;24.30;99.60;;;;;;5059505;28;20625;-79
2023/08/06 09:24:17;;;;;;;0.20;0.20;;;24.40;98.00;;;;;;5041508;28;20746;-76
2023/08/06 09:26:46;;;;;;;0.08;0.08;;;24.40;98.40;;;;;;5041173;28;20139;-84
2023/08/06 09:29:12;;;;;;;0.10;0.10;;;24.70;98.40;;;;;;5041850;28;20028;-73
2023/08/06 09:31:46;;;;;;;0.00;0.00;;;24.80;98.60;;;;;;5058898;28;20029;-74
2023/08/06 09:34:20;;;;;;;0.05;0.05;;;24.90;98.00;;;;;;5058952;28;20017;-84
2023/08/06 09:36:50;;;;;;;0.20;0.20;;;25.00;97.50;;;;;;5041369;28;20036;-73
2023/08/06 09:39:18;;;;;;;0.10;0.10;;;25.00;97.90;;;;;;5058253;28;20095;-74
2023/08/06 09:41:45;;;;;;;0.05;0.05;;;24.90;97.10;;;;;;5040731;28;20020;-85
2023/08/06 09:44:23;;;;;;;0.00;0.00;;;24.70;97.60;;;;;;5058844;28;20039;-74
2023/08/06 09:46:53;;;;;;;0.10;0.10;;;24.70;97.90;;;;;;5058559;28;20044;-79
2023/08/06 09:49:22;;;;;;;0.10;0.10;;;24.70;97.80;;;;;;5041030;28;20021;-83
2023/08/06 09:51:51;;;;;;;0.10;0.10;;;24.70;97.70;;;;;;5058479;28;20048;-80
2023/08/06 09:54:18;;;;;;;0.10;0.10;;;;;;;;;;5058359;28;20119;-75
2023/08/06 09:56:44;;;;;;;0.10;0.10;;;25.00;95.90;;;;;;5059381;28;20540;-78
2023/08/06 09:59:13;;;;;;;0.10;0.10;;;25.10;95.70;;;;;;5058423;28;20024;-78
2023/08/06 10:01:39;;;;;;;0.10;0.10;;;25.10;95.00;;;;;;5058717;28;20039;-78
2023/08/06 10:04:11;;;;;;;0.10;0.10;;;25.00;95.00;;;;;;5058733;28;20036;-80
2023/08/06 10:06:37;;;;;;;0.00;0.00;;;24.70;95.20;;;;;;5040734;28;20017;-75
2023/08/06 10:09:07;;;;;;;0.10;0.10;;;24.60;95.50;;;;;;5059322;28;20024;-75
2023/08/06 10:11:33;;;;;;;0.10;0.10;;;24.40;96.30;;;;;;5058261;28;20008;-75
2023/08/06 10:14:20;;;;;;;0.10;0.10;;;22.90;96.60;;;;;;5041016;28;20595;-78
2023/08/06 10:16:47;;;;;;;0.10;0.10;;;23.80;97.40;;;;;;5059227;28;20087;-74
2023/08/06 10:19:16;;;;;;;0.03;0.03;;;23.40;98.20;;;;;;5059442;28;20021;-75
2023/08/06 10:21:41;;;;;;;0.10;0.10;;;23.20;98.80;;;;;;5059136;28;20023;-75
2023/08/06 10:24:11;;;;;;;0.10;0.10;;;23.00;99.40;;;;;;5057971;28;20024;-74
2023/08/06 10:26:37;;;;;;;0.10;0.10;;;22.90;99.90;;;;;;5039891;28;20035;-75
2023/08/06 10:29:36;;;;;;;0.10;0.10;;;22.90;99.90;;;;;;5039625;28;20020;-76
2023/08/06 10:32:02;;;;;;;0.10;0.10;;;22.70;99.90;;;;;;5058224;28;20052;-76
2023/08/06 10:35:10;;;;;;;0.32;0.32;;;22.70;99.90;;;;;;5040594;28;20056;-83
2023/08/06 10:37:36;;;;;;;0.10;0.10;;;22.20;99.90;;;;;;5040523;28;20078;-76
2023/08/06 10:40:03;;;;;;;0.10;0.10;;;22.00;99.90;;;;;;5040442;28;20529;-89
2023/08/06 10:42:30;;;;;;;0.10;0.10;;;22.30;99.90;;;;;;5058777;28;20032;-75
2023/08/06 10:45:15;;;;;;;0.17;0.17;;;22.60;99.90;;;;;;5058208;28;20100;-75
2023/08/06 10:47:44;;;;;;;0.00;0.00;;;22.80;99.90;;;;;;5058543;28;20009;-75
2023/08/06 10:50:17;;;;;;;1.88;1.77;;;23.30;99.90;;;;;;5040911;28;20118;-75
2023/08/06 10:52:47;;;;;;;0.10;0.10;;;23.50;99.90;;;;;;5058174;28;20056;-75
2023/08/06 10:55:29;;;;;;;0.10;0.10;;;21.50;99.90;;;;;;5059809;28;20012;-75
2023/08/06 10:57:55;;;;;;;0.10;0.10;;;23.50;99.90;;;;;;5058178;28;20018;-75
2023/08/06 11:00:29;;;;;;;0.10;0.10;;;23.30;99.90;;;;;;5058357;28;20020;-76
2023/08/06 11:02:57;;;;;;;;;;;23.60;99.90;;;;;;5040828;28;20060;-75
2023/08/06 11:05:25;;;;;;;0.10;0.10;;;23.30;99.90;;;;;;5058943;28;19913;-75
2023/08/06 11:07:52;;;;;;;0.10;0.10;;;23.40;99.90;;;;;;5058193;28;20056;-75
2023/08/06 11:10:29;;;;;;;0.10;0.10;;;;;;;;;;5039582;28;20036;-75
2023/08/06 11:12:55;;;;;;;0.25;0.25;;;;;;;;;;5040252;28;20714;-78
2023/08/06 11:15:37;;;;;;;0.10;0.10;;;23.40;99.90;;;;;;5040443;28;20021;-80
2023/08/06 11:18:03;;;;;;;0.00;0.00;;;23.40;99.90;;;;;;5040003;28;20028;-75
2023/08/06 11:20:29;;;;;;;0.10;0.10;;;23.50;99.90;;;;;;5040645;28;20027;-79
2023/08/06 11:22:55;;;;;;;0.20;0.20;;;23.70;99.90;;;;;;5058203;28;20229;-80
2023/08/06 11:25:21;;;;;;;0.10;0.10;;;23.80;99.90;;;;;;5039945;28;20281;-75
2023/08/06 11:27:48;;;;;;;0.10;0.10;;;24.10;99.90;;;;;;5040983;28;20737;-79
2023/08/06 11:30:14;;;;;;;0.10;0.10;;;24.50;99.90;;;;;;5058368;28;20547;-76
2023/08/06 11:32:47;;;;;;;0.08;0.08;;;24.90;99.90;;;;;;5057947;28;20025;-82
2023/08/06 11:35:14;;;;;;;0.30;0.30;;;25.90;99.90;;;;;;5058080;28;20705;-80
2023/08/06 11:37:44;;;;;;;0.00;0.00;;;25.50;99.90;;;;;;5057876;28;20029;-77
2023/08/06 11:40:13;;;;;;;0.10;0.10;;;25.50;99.90;;;;;;5057957;28;20013;-75
2023/08/06 11:42:39;;;;;;;0.10;0.10;;;25.10;99.60;;;;;;5058703;28;20530;-76
2023/08/06 11:45:05;;;;;;;0.10;0.10;;;24.70;99.90;;;;;;5057739;28;20141;-74
2023/08/06 11:47:31;;;;;;;0.10;0.10;;;24.50;99.90;;;;;;5057735;28;20027;-74
2023/08/06 11:49:57;;;;;;;0.10;0.10;;;24.10;99.90;;;;;;5059004;28;20028;-79
2023/08/06 11:52:24;;;;;;;0.10;0.10;;;23.70;99.90;;;;;;5061143;28;20043;-80
2023/08/06 11:55:14;;;;;;;0.10;0.10;;;23.40;99.90;;;;;;5062174;28;20548;-75
2023/08/06 11:57:44;;;;;;;0.10;0.10;;;22.90;99.90;;;;;;5044974;28;20025;-78
2023/08/06 12:00:12;;;;;;;0.10;0.10;;;23.10;99.90;;;;;;5061234;28;20099;-75
2023/08/06 12:02:43;;;;;;;0.10;0.10;;;22.70;99.90;;;;;;5061410;28;20013;-79
2023/08/06 12:05:12;;;;;;;0.10;0.10;;;22.30;99.90;;;;;;5061206;28;20036;-75
2023/08/06 12:07:41;;;;;;;0.10;0.10;;;22.00;99.90;;;;;;5061636;28;20009;-84
2023/08/06 12:10:07;;;;;;;0.10;0.10;;;21.90;99.90;;;;;;5043178;28;20111;-81
2023/08/06 12:12:37;;;;;;;0.10;0.10;;;21.90;99.90;;;;;;5061788;28;20532;-74
2023/08/06 12:15:04;;;;;;;0.10;0.10;;;21.70;99.90;;;;;;5043957;28;20489;-76
2023/08/06 12:17:30;;;;;;;0.52;0.52;;;21.50;99.90;;;;;;5061419;28;20025;-78
2023/08/06 12:19:56;;;;;;;0.10;0.10;;;21.20;99.90;;;;;;5061273;28;20731;-76
2023/08/06 12:22:21;;;;;;;0.10;0.10;;;21.30;99.90;;;;;;5061000;28;20016;-80
2023/08/06 12:24:48;;;;;;;0.10;0.10;;;;;;;;;;5060985;28;20025;-75
2023/08/06 12:27:14;;;;;;;0.25;0.25;;;21.20;99.90;;;;;;5060745;28;20021;-78
2023/08/06 12:29:45;;;;;;;0.10;0.10;;;21.40;99.90;;;;;;5060883;28;20020;-75
2023/08/06 12:32:12;;;;;;;3.13;2.85;;;21.50;99.90;;;;;;5026518;28;20009;-75
2023/08/06 12:34:42;;;;;;;0.10;0.10;;;21.60;99.90;;;;;;5060606;28;20052;-76
2023/08/06 12:37:08;;;;;;;0.10;0.10;;;21.60;99.90;;;;;;5061632;28;20013;-77
2023/08/06 12:39:38;;;;;;;0.57;0.57;;;21.50;99.90;;;;;;5061109;28;20024;-81
2023/08/06 12:42:05;;;;;;;0.10;0.10;;;21.30;99.90;;;;;;5060811;28;20055;-74
2023/08/06 12:44:32;;;;;;;0.10;0.10;;;20.90;99.90;;;;;;5061743;28;20033;-76
2023/08/06 12:46:58;;;;;;;0.10;0.10;;;20.70;99.90;;;;;;5061879;28;20016;-76
2023/08/06 12:49:30;;;;;;;0.10;0.10;;;20.60;99.90;;;;;;5061168;28;20031;-75